• Join FlightAware (Why Join?)
  • Login
  • US Flag 
05:45PM EST


 

Airport Tracker/Info


-or-


 

Live Flight TrackerFlight Track Log ✈ N830QS ✈ 23-Jan-2014 ✈ KCHA - KSLN

Flight Track Log - Related Links

Times and Time Zones

All times are in EST time to prevent confusion due to time zone crossing. See the N830QS flight status page for this flight to view local times or setup timezone preferences in your user account.

Time Position Orientation Groundspeed Altitude Reporting Facility
EST Latitude Longitude Course Direction KTS MPH feet Rate Location/Type
06:06PM 35.0639 -85.1900 321° Northwest 187 215 2,500  Level Memphis Center
06:07PM 35.1272 -85.2283 334° Northwest 246 283 7,600 3,600 Climbing Memphis Center
06:08PM 35.1719 -85.2931 310° West 248 285 10,000 3,120 Climbing Memphis Center
06:09PM 35.2217 -85.3628 311° West 264 304 14,100 3,840 Climbing Memphis Center
06:10PM 35.2703 -85.4317 311° West 267 307 18,100 3,240 Climbing Memphis Center
06:11PM 35.2527 -85.7962 321° Northwest  Level Estimated
06:11PM 35.3183 -85.5003 311° West 264 304 20,800  Level Memphis Center
06:11PM 35.3289 -85.5144 312° West 268 308 21,300 2,400 Climbing Memphis Center
06:12PM 35.3806 -85.5878 311° West 278 320 23,800 2,340 Climbing Memphis Center
06:13PM 35.4450 -85.6792 311° West 291 335 26,200 1,980 Climbing Memphis Center
06:14PM 35.4978 -85.7581 309° West 297 342 28,000 840 Climbing Memphis Center
06:15PM 35.5542 -85.8408 310° West 308 354 28,000 660 Level Memphis Center
06:16PM 35.6117 -85.9269 309° West 321 369 29,400 1,680 Climbing Memphis Center
06:17PM 35.6628 -86.0044 309° West 306 352 31,500 1,800 Climbing Memphis Center
06:18PM 35.7128 -86.0794 309° West 288 331 33,200 1,200 Climbing Memphis Center
06:19PM 35.7725 -86.1664 310° West 282 325 34,000 360 Climbing Memphis Center
06:20PM 35.8242 -86.2456 309° West 288 331 34,000 540 Level Memphis Center
06:21PM 35.8758 -86.3233 309° West 291 335 35,200 1,440 Climbing Memphis Center
06:22PM 35.9211 -86.3956 308° West 272 313 37,000 1,320 Climbing Memphis Center
06:23PM 35.9686 -86.4656 310° West 264 304 38,000 480 Climbing Memphis Center
06:24PM 36.0214 -86.5389 312° West 277 319 38,000  Level Memphis Center
06:25PM 36.0864 -86.6158 316° Northwest 309 356 38,000  Level Memphis Center
06:26PM 36.1517 -86.7167 309° West 318 366 38,000  Level Memphis Center
06:27PM 36.1942 -86.8106 299° West 309 356 38,000  Level Memphis Center
06:28PM 36.2378 -86.9031 300° West 306 352 38,000  Level Memphis Center
06:30PM 36.2800 -86.9972 299° West 304 350 38,000  Level Memphis Center
06:31PM 36.3228 -87.0908 300° West 305 351 38,000  Level Memphis Center
06:32PM 36.3650 -87.1858 299° West 309 356 38,000  Level Memphis Center
06:33PM 36.4083 -87.2822 299° West 313 360 38,000  Level Memphis Center
06:34PM 36.4511 -87.3786 299° West 314 361 38,000  Level Memphis Center
06:35PM 36.4942 -87.4753 299° West 316 364 38,000  Level Memphis Center
06:36PM 36.5372 -87.5714 299° West 315 362 38,000  Level Memphis Center
06:37PM 36.5806 -87.6689 299° West 317 365 38,000  Level Memphis Center
06:38PM 36.6303 -87.7825 299° West 317 365 38,000  Level Memphis Center
06:39PM 36.6728 -87.8803 298° West 317 365 38,000  Level Memphis Center
06:40PM 36.7175 -87.9772 300° West 319 367 38,000  Level Memphis Center
06:41PM 36.7583 -88.0747 298° West 316 364 38,000  Level Memphis Center
06:42PM 36.7989 -88.1664 299° West 320 368 38,000  Level Memphis Center
06:43PM 36.8500 -88.2828 299° West 320 368 38,000  Level Memphis Center
06:44PM 36.8925 -88.3808 298° West 321 369 38,000  Level Memphis Center
06:45PM 36.9344 -88.4783 298° West 320 368 38,000  Level Memphis Center
06:46PM 36.9767 -88.5764 298° West 320 368 38,000  Level Memphis Center
06:47PM 37.0192 -88.6739 299° West 320 368 38,000  Level Memphis Center
06:48PM 37.0608 -88.7717 298° West 320 368 38,000  Level Memphis Center
06:49PM 37.1111 -88.8883 298° West 320 368 38,000  Level Memphis Center
06:50PM 37.1519 -88.9867 298° West 320 368 38,000  Level Memphis Center
06:51PM 37.1950 -89.0853 299° West 321 369 38,000  Level Memphis Center
06:52PM 37.2369 -89.1836 298° West 321 369 38,000  Level Memphis Center
06:53PM 37.2792 -89.2847 298° West 325 374 38,000  Level Memphis Center
06:54PM 37.3294 -89.4044 298° West 324 373 38,000  Level Memphis Center
06:55PM 37.3714 -89.5053 298° West 325 374 38,000  Level Memphis Center
06:56PM 37.4136 -89.6047 298° West 325 374 38,000  Level Memphis Center
06:57PM 37.4556 -89.7056 298° West 325 374 38,000  Level Memphis Center
06:58PM 37.4900 -89.8111 292° West 331 381 38,000  Level Memphis Center
07:00PM 37.5161 -89.9425 284° West 326 375 38,000  Level Memphis Center
07:01PM 37.5367 -90.0539 283° West 326 375 38,000  Level Memphis Center
07:02PM 37.5572 -90.1642 283° West 325 374 38,000  Level Memphis Center
07:03PM 37.5781 -90.2747 283° West 324 373 38,000  Level Memphis Center
07:04PM 37.5992 -90.3853 284° West 325 374 38,000  Level Memphis Center
07:05PM 37.6203 -90.5042 283° West 325 374 38,000  Level Memphis Center
07:06PM 37.6408 -90.6150 283° West 325 374 38,000  Level Memphis Center
07:07PM 37.6656 -90.7567 282° West 323 372 38,000  Level Kansas City Center
07:08PM 37.6861 -90.8689 283° West 326 375 38,000  Level Kansas City Center
07:09PM 37.7047 -90.9797 282° West 324 373 38,000  Level Kansas City Center
07:10PM 37.7275 -91.1078 283° West 327 376 38,000  Level Kansas City Center
07:11PM 37.7475 -91.2208 283° West 328 377 38,000  Level Kansas City Center
07:12PM 37.7667 -91.3347 282° West 330 380 38,000  Level Kansas City Center
07:13PM 37.7861 -91.4489 282° West 331 381 38,000  Level Kansas City Center
07:14PM 37.8067 -91.5631 283° West 332 382 38,000  Level Kansas City Center
07:15PM 37.8261 -91.6781 282° West 332 382 38,000  Level Kansas City Center
07:16PM 37.8494 -91.8156 282° West 332 382 38,000  Level Kansas City Center
07:17PM 37.8697 -91.9297 283° West 331 381 38,000  Level Kansas City Center
07:18PM 37.8889 -92.0436 282° West 330 380 38,000  Level Kansas City Center
07:19PM 37.9092 -92.1614 282° West 332 382 38,000  Level Kansas City Center
07:20PM 37.9283 -92.2775 282° West 334 384 38,000  Level Kansas City Center
07:21PM 37.9475 -92.3919 282° West 334 384 38,000  Level Kansas City Center
07:23PM 37.9656 -92.5056 281° West 333 383 38,000  Level Kansas City Center
07:24PM 37.9847 -92.6219 282° West 337 388 38,000  Level Kansas City Center
07:25PM 38.0050 -92.7492 281° West 336 387 38,000  Level Kansas City Center
07:26PM 38.0239 -92.8675 281° West 339 390 38,000  Level Kansas City Center
07:27PM 38.0425 -92.9842 281° West 337 388 38,000  Level Kansas City Center
07:28PM 38.0656 -93.1253 282° West 339 390 38,000  Level Kansas City Center
07:29PM 38.0847 -93.2439 282° West 339 390 38,000  Level Kansas City Center
07:30PM 38.1019 -93.3639 280° West 343 395 38,000  Level Kansas City Center
07:31PM 38.1217 -93.4833 282° West 344 396 38,000  Level Kansas City Center
07:32PM 38.1400 -93.6028 281° West 344 396 38,000  Level Kansas City Center
07:33PM 38.1578 -93.7231 281° West 345 397 38,000  Level Kansas City Center
07:34PM 38.1753 -93.8422 281° West 342 394 38,000  Level Kansas City Center
07:35PM 38.1956 -93.9597 282° West 341 392 38,000  Level Kansas City Center
07:36PM 38.2147 -94.0933 280° West 342 394 38,000  Level Kansas City Center
07:37PM 38.2344 -94.2281 281° West 344 396 38,000  Level Kansas City Center
07:38PM 38.2508 -94.3439 280° West 345 397 38,000  Level Kansas City Center
07:39PM 38.2681 -94.4611 281° West 348 400 38,000  Level Kansas City Center
07:40PM 38.2900 -94.5953 282° West 349 402 38,000  Level Kansas City Center
07:41PM 38.3122 -94.7133 284° West 354 407 38,000  Level Kansas City Center
07:42PM 38.3353 -94.8489 282° West 352 405 38,000  Level Kansas City Center
07:43PM 38.3558 -94.9650 283° West 351 404 38,000  Level Kansas City Center
07:44PM 38.3794 -95.1033 282° West 355 409 38,000 -180 Level Kansas City Center
07:45PM 38.3997 -95.2206 282° West 353 406 37,700 -660 Descending Kansas City Center
07:46PM 38.4206 -95.3372 283° West 352 405 36,700 -1,320 Descending Kansas City Center
07:47PM 38.4431 -95.4708 282° West 348 400 35,000 -1,860 Descending Kansas City Center
07:48PM 38.4611 -95.5831 282° West 338 389 33,000 -2,100 Descending Kansas City Center
07:49PM 38.4842 -95.7183 282° West 349 402 30,800 -2,040 Descending Kansas City Center
07:50PM 38.5033 -95.8339 282° West 347 399 28,900 -2,100 Descending Kansas City Center
07:51PM 38.5272 -95.9792 282° West 370 426 26,500 -2,400 Descending Kansas City Center
07:52PM 38.5478 -96.1033 282° West 373 429 24,100 -2,400 Descending Kansas City Center
07:53PM 38.5672 -96.2244 282° West 364 419 21,700 -2,520 Descending Kansas City Center
07:54PM 38.5886 -96.3603 281° West 349 402 18,900 -2,100 Descending Kansas City Center
07:56PM 38.6067 -96.4733 282° West 341 392 17,400 -1,800 Descending Kansas City Center
07:57PM 38.6278 -96.6036 282° West 335 386 15,200 -2,040 Descending Kansas City Center
07:58PM 38.6464 -96.7219 281° West 333 383 13,200 -1,740 Descending Kansas City Center
07:59PM 38.6639 -96.8383 281° West 320 368 11,700 -1,200 Descending Kansas City Center
08:00PM 38.6808 -96.9483 281° West 304 350 10,700 -1,260 Descending Kansas City Center
08:01PM 38.6964 -97.0450 282° West 270 311 9,200 -1,440 Descending Kansas City Center
08:02PM 38.7100 -97.1325 281° West 262 302 7,800 -1,500 Descending Kansas City Center
08:03PM 38.7242 -97.2242 281° West 251 289 6,200 -1,560 Descending Kansas City Center
08:04PM 38.7236 -97.3164 270° West 251 289 4,600 -1,320 Descending Kansas City Center
08:05PM 38.7208 -97.4058 268° West 243 280 3,600 -780 Descending Kansas City Center
08:06PM 38.7211 -97.4903 270° West 229 264 3,000 -300 Descending Kansas City Center
08:07PM 38.7231 -97.5525 272° West 190 219 3,000 -60 Level Kansas City Center
08:08PM 38.7278 -97.6111 276° West 164 189 2,900 -600 Descending Kansas City Center
08:09PM 38.7497 -97.6467 308° West 128 147 1,800 -600 Descending Kansas City Center
08:10PM 38.7725 -97.6664 326° Northwest 126 145 1,800  Level Kansas City Center